sensor_id;sensor_type;location;lat;lon;timestamp;P1;durP1;ratioP1;P2;durP2;ratioP2
16177;SDS011;8195;51.220;9.746;2023-02-28T00:02:43;2.70;;;2.33;;
16177;SDS011;8195;51.220;9.746;2023-02-28T00:12:43;2.73;;;2.50;;
16177;SDS011;8195;51.220;9.746;2023-02-28T00:22:45;3.00;;;2.80;;
16177;SDS011;8195;51.220;9.746;2023-02-28T00:32:48;2.90;;;2.70;;
16177;SDS011;8195;51.220;9.746;2023-02-28T00:42:49;4.47;;;2.60;;
16177;SDS011;8195;51.220;9.746;2023-02-28T00:52:50;3.10;;;2.90;;
16177;SDS011;8195;51.220;9.746;2023-02-28T01:02:50;2.75;;;2.55;;
16177;SDS011;8195;51.220;9.746;2023-02-28T01:12:51;3.07;;;2.77;;
16177;SDS011;8195;51.220;9.746;2023-02-28T01:22:52;2.72;;;2.53;;
16177;SDS011;8195;51.220;9.746;2023-02-28T01:32:52;3.25;;;2.70;;
16177;SDS011;8195;51.220;9.746;2023-02-28T01:42:53;3.30;;;2.72;;
16177;SDS011;8195;51.220;9.746;2023-02-28T01:52:54;2.97;;;2.60;;
16177;SDS011;8195;51.220;9.746;2023-02-28T02:03:00;2.73;;;2.53;;
16177;SDS011;8195;51.220;9.746;2023-02-28T02:44:28;2.50;;;2.30;;
16177;SDS011;8195;51.220;9.746;2023-02-28T02:54:17;2.23;;;2.00;;
16177;SDS011;8195;51.220;9.746;2023-02-28T03:04:23;2.40;;;2.20;;
16177;SDS011;8195;51.220;9.746;2023-02-28T03:14:34;2.43;;;2.17;;
16177;SDS011;8195;51.220;9.746;2023-02-28T03:24:51;2.80;;;2.30;;
16177;SDS011;8195;51.220;9.746;2023-02-28T03:34:58;2.27;;;2.07;;
16177;SDS011;8195;51.220;9.746;2023-02-28T03:45:11;2.20;;;2.10;;
16177;SDS011;8195;51.220;9.746;2023-02-28T03:55:21;2.30;;;2.10;;
16177;SDS011;8195;51.220;9.746;2023-02-28T04:05:22;2.50;;;2.30;;
16177;SDS011;8195;51.220;9.746;2023-02-28T04:15:23;2.70;;;2.17;;
16177;SDS011;8195;51.220;9.746;2023-02-28T04:25:24;2.40;;;2.20;;
16177;SDS011;8195;51.220;9.746;2023-02-28T04:35:24;2.65;;;2.45;;
16177;SDS011;8195;51.220;9.746;2023-02-28T04:45:25;2.47;;;2.28;;
16177;SDS011;8195;51.220;9.746;2023-02-28T04:55:26;2.60;;;2.40;;
16177;SDS011;8195;51.220;9.746;2023-02-28T05:05:27;2.50;;;2.30;;
16177;SDS011;8195;51.220;9.746;2023-02-28T05:15:27;2.77;;;2.57;;
16177;SDS011;8195;51.220;9.746;2023-02-28T05:25:28;2.70;;;2.50;;
16177;SDS011;8195;51.220;9.746;2023-02-28T05:35:29;2.50;;;2.30;;
16177;SDS011;8195;51.220;9.746;2023-02-28T05:45:29;2.53;;;2.33;;
16177;SDS011;8195;51.220;9.746;2023-02-28T05:55:30;3.33;;;3.03;;
16177;SDS011;8195;51.220;9.746;2023-02-28T06:05:30;3.63;;;3.33;;
16177;SDS011;8195;51.220;9.746;2023-02-28T06:15:31;3.65;;;3.45;;
16177;SDS011;8195;51.220;9.746;2023-02-28T06:25:32;3.30;;;3.10;;
16177;SDS011;8195;51.220;9.746;2023-02-28T06:35:33;3.40;;;3.10;;
16177;SDS011;8195;51.220;9.746;2023-02-28T06:45:33;3.35;;;3.05;;
16177;SDS011;8195;51.220;9.746;2023-02-28T06:55:34;3.38;;;3.08;;
16177;SDS011;8195;51.220;9.746;2023-02-28T07:05:35;3.53;;;3.15;;
16177;SDS011;8195;51.220;9.746;2023-02-28T07:15:36;4.13;;;3.83;;
16177;SDS011;8195;51.220;9.746;2023-02-28T07:25:37;3.73;;;3.43;;
16177;SDS011;8195;51.220;9.746;2023-02-28T07:35:38;4.30;;;3.88;;
16177;SDS011;8195;51.220;9.746;2023-02-28T07:45:38;4.15;;;3.75;;
16177;SDS011;8195;51.220;9.746;2023-02-28T07:55:39;4.55;;;4.15;;
16177;SDS011;8195;51.220;9.746;2023-02-28T08:05:40;4.85;;;4.40;;
16177;SDS011;8195;51.220;9.746;2023-02-28T08:15:41;4.70;;;4.27;;
16177;SDS011;8195;51.220;9.746;2023-02-28T08:25:42;4.73;;;4.10;;
16177;SDS011;8195;51.220;9.746;2023-02-28T08:35:42;4.40;;;4.10;;
16177;SDS011;8195;51.220;9.746;2023-02-28T08:45:43;4.20;;;3.90;;
16177;SDS011;8195;51.220;9.746;2023-02-28T08:55:43;4.68;;;4.28;;
16177;SDS011;8195;51.220;9.746;2023-02-28T09:05:53;4.72;;;4.35;;
16177;SDS011;8195;51.220;9.746;2023-02-28T09:16:00;4.80;;;4.30;;
16177;SDS011;8195;51.220;9.746;2023-02-28T09:26:02;4.83;;;4.43;;
16177;SDS011;8195;51.220;9.746;2023-02-28T09:36:04;4.80;;;4.40;;
16177;SDS011;8195;51.220;9.746;2023-02-28T09:56:36;4.50;;;4.10;;
16177;SDS011;8195;51.220;9.746;2023-02-28T10:06:48;6.27;;;5.10;;
16177;SDS011;8195;51.220;9.746;2023-02-28T10:16:50;6.50;;;5.90;;
16177;SDS011;8195;51.220;9.746;2023-02-28T10:26:59;6.83;;;6.23;;
16177;SDS011;8195;51.220;9.746;2023-02-28T10:37:04;6.10;;;5.70;;
16177;SDS011;8195;51.220;9.746;2023-02-28T10:47:05;5.37;;;4.90;;
16177;SDS011;8195;51.220;9.746;2023-02-28T10:57:17;5.60;;;5.20;;
16177;SDS011;8195;51.220;9.746;2023-02-28T11:07:20;5.70;;;5.30;;
16177;SDS011;8195;51.220;9.746;2023-02-28T11:17:23;5.80;;;5.30;;
16177;SDS011;8195;51.220;9.746;2023-02-28T11:37:30;6.47;;;5.65;;
16177;SDS011;8195;51.220;9.746;2023-02-28T11:47:47;5.70;;;5.20;;
16177;SDS011;8195;51.220;9.746;2023-02-28T12:28:49;6.83;;;6.33;;
16177;SDS011;8195;51.220;9.746;2023-02-28T12:38:53;7.00;;;6.40;;
16177;SDS011;8195;51.220;9.746;2023-02-28T12:48:56;7.80;;;7.00;;
16177;SDS011;8195;51.220;9.746;2023-02-28T13:09:40;7.60;;;6.80;;
16177;SDS011;8195;51.220;9.746;2023-02-28T13:19:43;7.17;;;6.43;;
16177;SDS011;8195;51.220;9.746;2023-02-28T13:29:45;6.47;;;5.87;;
16177;SDS011;8195;51.220;9.746;2023-02-28T13:39:53;6.93;;;5.73;;
16177;SDS011;8195;51.220;9.746;2023-02-28T14:10:50;7.77;;;7.07;;
16177;SDS011;8195;51.220;9.746;2023-02-28T14:21:22;7.03;;;6.50;;
16177;SDS011;8195;51.220;9.746;2023-02-28T14:31:34;7.30;;;6.70;;
16177;SDS011;8195;51.220;9.746;2023-02-28T14:41:39;7.90;;;7.17;;
16177;SDS011;8195;51.220;9.746;2023-02-28T14:51:41;7.87;;;7.17;;
16177;SDS011;8195;51.220;9.746;2023-02-28T15:01:42;8.27;;;7.30;;
16177;SDS011;8195;51.220;9.746;2023-02-28T15:11:45;8.60;;;7.53;;
16177;SDS011;8195;51.220;9.746;2023-02-28T15:21:48;8.73;;;7.40;;
16177;SDS011;8195;51.220;9.746;2023-02-28T15:42:09;9.73;;;7.40;;
16177;SDS011;8195;51.220;9.746;2023-02-28T15:52:16;9.03;;;8.13;;
16177;SDS011;8195;51.220;9.746;2023-02-28T16:02:41;8.53;;;7.63;;
16177;SDS011;8195;51.220;9.746;2023-02-28T16:12:42;9.13;;;8.17;;
16177;SDS011;8195;51.220;9.746;2023-02-28T16:22:42;9.10;;;8.20;;
16177;SDS011;8195;51.220;9.746;2023-02-28T16:32:43;10.33;;;8.00;;
16177;SDS011;8195;51.220;9.746;2023-02-28T16:42:44;9.18;;;8.38;;
16177;SDS011;8195;51.220;9.746;2023-02-28T16:52:46;8.47;;;7.67;;
16177;SDS011;8195;51.220;9.746;2023-02-28T17:02:47;9.60;;;8.60;;
16177;SDS011;8195;51.220;9.746;2023-02-28T17:12:48;8.47;;;7.67;;
16177;SDS011;8195;51.220;9.746;2023-02-28T17:22:49;9.70;;;8.80;;
16177;SDS011;8195;51.220;9.746;2023-02-28T17:32:50;10.70;;;8.67;;
16177;SDS011;8195;51.220;9.746;2023-02-28T17:42:51;8.32;;;7.53;;
16177;SDS011;8195;51.220;9.746;2023-02-28T17:52:51;10.30;;;8.48;;
16177;SDS011;8195;51.220;9.746;2023-02-28T18:02:52;10.45;;;8.63;;
16177;SDS011;8195;51.220;9.746;2023-02-28T18:12:52;10.43;;;9.33;;
16177;SDS011;8195;51.220;9.746;2023-02-28T18:22:53;10.87;;;7.90;;
16177;SDS011;8195;51.220;9.746;2023-02-28T18:32:54;9.80;;;8.77;;
16177;SDS011;8195;51.220;9.746;2023-02-28T18:42:55;10.67;;;8.70;;
16177;SDS011;8195;51.220;9.746;2023-02-28T18:52:55;10.53;;;8.30;;
16177;SDS011;8195;51.220;9.746;2023-02-28T19:02:56;9.67;;;8.67;;
16177;SDS011;8195;51.220;9.746;2023-02-28T19:12:57;11.00;;;9.50;;
16177;SDS011;8195;51.220;9.746;2023-02-28T19:22:57;10.70;;;8.90;;
16177;SDS011;8195;51.220;9.746;2023-02-28T19:32:58;10.93;;;9.03;;
16177;SDS011;8195;51.220;9.746;2023-02-28T19:42:59;9.73;;;8.73;;
16177;SDS011;8195;51.220;9.746;2023-02-28T19:52:59;10.57;;;9.33;;
16177;SDS011;8195;51.220;9.746;2023-02-28T20:03:00;9.38;;;8.18;;
16177;SDS011;8195;51.220;9.746;2023-02-28T20:13:01;10.97;;;9.30;;
16177;SDS011;8195;51.220;9.746;2023-02-28T20:23:02;10.77;;;9.13;;
16177;SDS011;8195;51.220;9.746;2023-02-28T20:33:03;12.67;;;9.03;;
16177;SDS011;8195;51.220;9.746;2023-02-28T20:43:03;10.32;;;8.57;;
16177;SDS011;8195;51.220;9.746;2023-02-28T20:53:04;11.23;;;8.93;;
16177;SDS011;8195;51.220;9.746;2023-02-28T21:03:05;10.10;;;8.77;;
16177;SDS011;8195;51.220;9.746;2023-02-28T21:13:05;9.83;;;8.67;;
16177;SDS011;8195;51.220;9.746;2023-02-28T21:23:06;10.00;;;8.93;;
16177;SDS011;8195;51.220;9.746;2023-02-28T21:33:07;10.77;;;8.17;;
16177;SDS011;8195;51.220;9.746;2023-02-28T21:43:07;11.23;;;10.03;;
16177;SDS011;8195;51.220;9.746;2023-02-28T21:53:08;11.80;;;9.20;;
